sim
Sign-in with your pilot id or email,
or register
Callsign
Passwort

Schedule Details

Flight Number: RYR4484 (1)
Departure: Nuremberg Airport (EDDN) at 06:00
Arrival: Thessaloniki International Airport (LGTS) at 08:20
Route: Ryanair Passenger Schedule. Enter filed route here before submitting Pirep.

Weather Information
Getting current METAR information for EDDN 211220Z 29012KT 9999 SCT027 11/04 Q1027 NOSIG
Getting current METAR information for LGTS 211220Z 34013KT 9999 FEW030 16/00 Q1022 NOSIG

Schedule Frequency

Route Map